Belize - Landivar, Belize

8:12 AM CST on February 10, 2016 (GMT -0600)
Slaughter House Rd, Bze City | | Change Station
CLOSE
Current Station
Personal Weather Station
Location: Belize City,
Elevation: 10 ft
Nearby Weather Stations

Elev 10 ft 17.49 °N, 88.19 °W | Updated 9 seconds ago

Clear
Clear
64.2 °F
Feels Like 64.2 °F
N
12.1
Wind Variable Wind from NW
Gusts 12.1 mph

Today
High -- | Low -- °F
--% Chance of Precip.
Yesterday
High -- | Low -- °F
Precip. -- in
Pressure 30.31 in
Visibility -9999.0 miles
Clouds
Dew Point 54 °F
Humidity 71%
Rainfall 0.00 in
Snow Depth Not available.
6:22 AM 5:52 PM
Waxing Crescent, 5% visible
METAR MZBZ 101400Z 31005KT CAVOK 17/15 A3031 Q1026 NOSIG
Pressure 30.31 in
Visibility -9999.0 miles
Clouds
Dew Point 54 °F
Humidity 71%
Rainfall 0.00 in
Snow Depth Not available.
6:22 AM 5:52 PM
Waxing Crescent, 5% visible
METAR MZBZ 101400Z 31005KT CAVOK 17/15 A3031 Q1026 NOSIG

10-Day Weather Forecast

No radar image for this location.
×

Almanac

Astronomy

Feb. 10, 2016 Rise Set
Actual Time
Civil Twilight
Nautical Twilight
Astronomical Twilight
Moon
Length of Visible Light
Length of Day
Tomorrow will be .
, % of the Moon is Illuminated

Today's Extremes

Country Highs Country Lows

Community

WunderPhotos

Upload Photos

1,891,850 photos uploaded!

WunderBlog® & News

Nearby

Air Quality

  Air Quality AQ Index Pollutant
Not available.

Snow Depth

Station Depth Elevation

Earthquake Activity

City Distance Mag. Time & Date
Minimum magnitude displayed is 2.5.

Coastal Water Temperatures

Place Temperature

Stations

Nearby Weather Stations

Station Location Temp. Windchill Dew Point Humidity Wind Precip. Elev Updated Type